Glusburn, United Kingdom
Current Conditions -  °F | °C
As of 3:50 AM on Tuesday 23 Dec 2014 (Local Time) from EGNM Reporting Station
Broken Clouds Broken Clouds  
Wind Chill: 52°   Ceiling: 1600
Heat Index: 52°   Visibility: 6mi
Dew Point: 46°   Wind: 24mph
Humidity: 82%   Direction: 240°WSW
Pressure: 29.71"   Gusts: 38mph
Location:  53.9°N, 2°W
Report Text: EGNM 230350Z 24021G33KT 210V270 9999 BKN016 11/08 Q1006
Loading
Personal Weather Stations






























Interactive Weather Map New forecast layout! Learn more

10-Day Weather Forecast

Advertisements
Track Severe Weather on mobile